createdAt,value
2023-04-29T00:00:08.239Z,11.00
2023-04-29T00:00:19.635Z,11.10
2023-04-29T00:00:31.020Z,12.02
2023-04-29T00:00:42.397Z,12.30
2023-04-29T00:00:53.734Z,12.20
2023-04-29T00:01:05.290Z,12.13
2023-04-29T00:01:16.790Z,11.57
2023-04-29T00:01:28.283Z,12.40
2023-04-29T00:01:39.759Z,14.13
2023-04-29T00:01:51.160Z,14.25
2023-04-29T00:02:02.821Z,13.38
2023-04-29T00:02:14.469Z,14.98
2023-04-29T00:02:26.025Z,13.90
2023-04-29T00:02:37.621Z,12.65
2023-04-29T00:02:49.276Z,12.85
2023-04-29T00:03:01.812Z,14.02
2023-04-29T00:03:13.677Z,11.77
2023-04-29T00:03:25.360Z,12.70
2023-04-29T00:03:37.120Z,12.63
2023-04-29T00:03:48.797Z,12.60
2023-04-29T00:04:00.391Z,12.35
2023-04-29T00:04:12.188Z,13.00
2023-04-29T00:04:23.943Z,12.05
2023-04-29T00:04:35.612Z,11.57
2023-04-29T00:04:47.406Z,11.27
2023-04-29T00:04:59.466Z,11.18
2023-04-29T00:05:11.336Z,9.38
2023-04-29T00:05:23.186Z,10.60
2023-04-29T00:05:35.316Z,10.40
2023-04-29T00:05:46.902Z,10.17
2023-04-29T00:05:59.141Z,10.70
2023-04-29T00:06:10.900Z,11.95
2023-04-29T00:06:22.614Z,13.50
2023-04-29T00:06:34.099Z,13.85
2023-04-29T00:06:45.461Z,14.82
2023-04-29T00:06:56.889Z,15.57
2023-04-29T00:07:08.570Z,15.23
2023-04-29T00:07:21.211Z,15.23
2023-04-29T00:07:32.658Z,13.10
2023-04-29T00:07:44.050Z,10.88
2023-04-29T00:07:55.444Z,9.63
2023-04-29T00:08:06.946Z,12.32
2023-04-29T00:08:18.387Z,13.27
2023-04-29T00:08:29.770Z,14.27
2023-04-29T00:08:43.750Z,11.85
2023-04-29T00:08:55.185Z,10.80
2023-04-29T00:09:06.787Z,11.07
2023-04-29T00:09:18.209Z,10.80
2023-04-29T00:09:29.567Z,10.40
2023-04-29T00:09:41.519Z,12.13
2023-04-29T00:09:54.454Z,14.07
2023-04-29T00:10:06.418Z,13.38
2023-04-29T00:10:17.979Z,13.23
2023-04-29T00:10:29.466Z,13.45
2023-04-29T00:10:40.877Z,13.15
2023-04-29T00:10:52.412Z,10.68
2023-04-29T00:11:03.853Z,9.73
2023-04-29T00:11:15.298Z,11.45
2023-04-29T00:11:26.721Z,12.13
2023-04-29T00:11:40.821Z,12.30
2023-04-29T00:11:52.217Z,10.57
2023-04-29T00:12:03.648Z,11.88
2023-04-29T00:12:15.101Z,12.02
2023-04-29T00:12:26.633Z,13.75
2023-04-29T00:12:38.029Z,15.38
2023-04-29T00:12:49.475Z,14.68
2023-04-29T00:13:00.909Z,12.75
2023-04-29T00:13:12.325Z,12.32
2023-04-29T00:13:23.782Z,10.63
2023-04-29T00:13:35.204Z,10.55
2023-04-29T00:13:46.685Z,11.45
2023-04-29T00:13:58.165Z,13.40
2023-04-29T00:14:09.586Z,13.23
2023-04-29T00:14:20.986Z,10.68
2023-04-29T00:14:32.418Z,12.43
2023-04-29T00:14:43.845Z,14.07
2023-04-29T00:14:56.568Z,15.50
2023-04-29T00:15:08.594Z,15.15
2023-04-29T00:15:19.980Z,14.68
2023-04-29T00:15:31.394Z,11.50
2023-04-29T00:15:43.123Z,10.77
2023-04-29T00:15:54.505Z,11.05
2023-04-29T00:16:06.912Z,12.65
2023-04-29T00:16:20.850Z,12.82
2023-04-29T00:16:32.398Z,11.40
2023-04-29T00:16:43.930Z,10.77
2023-04-29T00:16:55.331Z,13.35
2023-04-29T00:17:07.706Z,13.77
2023-04-29T00:17:19.174Z,14.82
2023-04-29T00:17:30.681Z,14.05
2023-04-29T00:17:42.148Z,13.77
2023-04-29T00:17:53.724Z,11.95
2023-04-29T00:18:05.185Z,12.57
2023-04-29T00:18:16.605Z,15.43
2023-04-29T00:18:28.020Z,17.17
2023-04-29T00:18:39.406Z,18.15
2023-04-29T00:18:50.745Z,14.80
2023-04-29T00:19:03.288Z,15.05
2023-04-29T00:19:15.007Z,12.57
2023-04-29T00:19:26.867Z,13.75
2023-04-29T00:19:39.805Z,12.82
2023-04-29T00:19:51.454Z,12.30
2023-04-29T00:20:04.666Z,11.45
2023-04-29T00:20:16.061Z,13.80
2023-04-29T00:20:27.452Z,13.65
2023-04-29T00:20:39.374Z,15.43
2023-04-29T00:20:50.843Z,15.10
2023-04-29T00:21:03.260Z,13.85
2023-04-29T00:21:14.607Z,11.80
2023-04-29T00:21:25.970Z,10.10
2023-04-29T00:21:37.357Z,11.98
2023-04-29T00:21:48.735Z,12.27
2023-04-29T00:22:00.336Z,12.85
2023-04-29T00:22:11.981Z,13.82
2023-04-29T00:22:23.507Z,13.60
2023-04-29T00:22:34.852Z,11.77
2023-04-29T00:22:46.470Z,12.68
2023-04-29T00:22:57.847Z,15.38
2023-04-29T00:23:09.227Z,15.43
2023-04-29T00:23:20.778Z,17.45
2023-04-29T00:23:36.129Z,18.17
2023-04-29T00:23:47.763Z,16.35
2023-04-29T00:23:59.274Z,12.68
2023-04-29T00:24:10.691Z,11.90
2023-04-29T00:24:22.099Z,12.65
2023-04-29T00:24:33.501Z,13.57
2023-04-29T00:24:47.199Z,12.70
2023-04-29T00:24:58.608Z,11.85
2023-04-29T00:25:10.092Z,13.98
2023-04-29T00:25:21.483Z,15.07
2023-04-29T00:25:33.058Z,17.55
2023-04-29T00:25:44.475Z,18.42
2023-04-29T00:25:55.820Z,13.98
2023-04-29T00:26:07.236Z,12.15
2023-04-29T00:26:18.690Z,10.88
2023-04-29T00:26:30.070Z,11.77
2023-04-29T00:26:41.460Z,10.52
2023-04-29T00:26:53.043Z,11.18
2023-04-29T00:27:04.379Z,10.70
2023-04-29T00:27:15.710Z,11.07
2023-04-29T00:27:27.096Z,11.18
2023-04-29T00:27:38.506Z,12.27
2023-04-29T00:27:49.905Z,12.57
2023-04-29T00:28:01.231Z,13.52
2023-04-29T00:28:12.652Z,13.60
2023-04-29T00:28:24.036Z,11.90
2023-04-29T00:28:35.431Z,11.60
2023-04-29T00:28:46.880Z,11.70
2023-04-29T00:28:58.198Z,11.45
2023-04-29T00:29:10.821Z,11.80
2023-04-29T00:29:22.177Z,11.80
2023-04-29T00:29:33.578Z,13.05
2023-04-29T00:29:45.030Z,13.57
2023-04-29T00:29:56.559Z,12.70
2023-04-29T00:30:08.614Z,10.27
2023-04-29T00:30:20.004Z,11.23
2023-04-29T00:30:32.032Z,13.45
2023-04-29T00:30:43.448Z,13.93
2023-04-29T00:30:54.987Z,13.30
2023-04-29T00:31:06.591Z,13.68
2023-04-29T00:31:18.035Z,12.88
2023-04-29T00:31:29.463Z,11.50
2023-04-29T00:31:40.940Z,12.23
2023-04-29T00:31:52.271Z,13.15
2023-04-29T00:32:05.308Z,13.82
2023-04-29T00:32:16.645Z,12.63
2023-04-29T00:32:28.061Z,11.85
2023-04-29T00:32:39.540Z,11.88
2023-04-29T00:32:50.964Z,11.20
2023-04-29T00:33:02.730Z,11.23
2023-04-29T00:33:14.084Z,13.98
2023-04-29T00:33:25.533Z,13.98
2023-04-29T00:33:36.933Z,13.52
2023-04-29T00:33:48.333Z,13.52
2023-04-29T00:33:59.690Z,14.15
2023-04-29T00:34:11.319Z,13.15
2023-04-29T00:34:22.830Z,11.45
2023-04-29T00:34:35.685Z,10.95
2023-04-29T00:34:47.124Z,11.03
2023-04-29T00:34:58.510Z,12.68
2023-04-29T00:35:11.037Z,12.82
2023-04-29T00:35:22.528Z,12.52
2023-04-29T00:35:34.104Z,11.65
2023-04-29T00:35:45.637Z,10.52
2023-04-29T00:35:57.015Z,11.07
2023-04-29T00:36:08.434Z,10.52
2023-04-29T00:36:19.829Z,10.35
2023-04-29T00:36:32.678Z,11.38
2023-04-29T00:36:44.041Z,12.15
2023-04-29T00:36:55.415Z,11.70
2023-04-29T00:37:07.009Z,11.65
2023-04-29T00:37:18.602Z,12.15
2023-04-29T00:37:29.982Z,12.07
2023-04-29T00:37:41.637Z,12.32
2023-04-29T00:37:53.120Z,12.75
2023-04-29T00:38:04.536Z,11.93
2023-04-29T00:38:16.017Z,10.93
2023-04-29T00:38:27.449Z,10.23
2023-04-29T00:38:38.858Z,11.93
2023-04-29T00:38:50.309Z,11.98
2023-04-29T00:39:01.881Z,12.90
2023-04-29T00:39:14.668Z,13.75
2023-04-29T00:39:26.721Z,11.50
2023-04-29T00:39:39.397Z,10.73
2023-04-29T00:39:51.136Z,12.75
2023-04-29T00:40:02.686Z,13.55
2023-04-29T00:40:14.225Z,12.02
2023-04-29T00:40:27.369Z,12.77
2023-04-29T00:40:38.797Z,14.02
2023-04-29T00:40:50.816Z,12.82
2023-04-29T00:41:02.956Z,12.65
2023-04-29T00:41:14.575Z,13.93
2023-04-29T00:41:26.164Z,13.20
2023-04-29T00:41:37.980Z,11.60
2023-04-29T00:41:49.377Z,9.95
2023-04-29T00:42:00.766Z,11.05
2023-04-29T00:42:12.410Z,10.65
2023-04-29T00:42:23.865Z,11.80
2023-04-29T00:42:35.512Z,11.25
2023-04-29T00:42:46.866Z,15.02
2023-04-29T00:42:58.255Z,13.82
2023-04-29T00:43:09.580Z,12.93
2023-04-29T00:43:20.989Z,9.45
2023-04-29T00:43:32.409Z,12.13
2023-04-29T00:43:43.741Z,14.90
2023-04-29T00:43:55.114Z,14.15
2023-04-29T00:44:06.680Z,12.95
2023-04-29T00:44:18.124Z,13.30
2023-04-29T00:44:29.502Z,14.55
2023-04-29T00:44:40.869Z,13.18
2023-04-29T00:44:52.273Z,11.18
2023-04-29T00:45:06.488Z,10.05
2023-04-29T00:45:19.570Z,10.43
2023-04-29T00:45:30.964Z,10.55
2023-04-29T00:45:42.351Z,10.50
2023-04-29T00:45:53.749Z,10.38
2023-04-29T00:46:05.315Z,11.40
2023-04-29T00:46:16.733Z,13.85
2023-04-29T00:46:28.186Z,14.98
2023-04-29T00:46:39.782Z,16.35
2023-04-29T00:46:51.341Z,12.20
2023-04-29T00:47:02.835Z,10.13
2023-04-29T00:47:14.266Z,9.57
2023-04-29T00:47:25.662Z,12.82
2023-04-29T00:47:38.161Z,15.68
2023-04-29T00:47:49.731Z,17.15
2023-04-29T00:48:01.208Z,13.73
2023-04-29T00:48:13.151Z,12.13
2023-04-29T00:48:24.588Z,12.68
2023-04-29T00:48:36.081Z,16.13
2023-04-29T00:48:47.686Z,17.35
2023-04-29T00:48:59.489Z,13.82
2023-04-29T00:49:12.831Z,11.60
2023-04-29T00:49:24.213Z,11.40
2023-04-29T00:49:35.726Z,11.00
2023-04-29T00:49:47.258Z,10.45
2023-04-29T00:49:58.831Z,9.48
2023-04-29T00:50:10.558Z,9.63
2023-04-29T00:50:23.184Z,10.60
2023-04-29T00:50:37.207Z,10.88
2023-04-29T00:50:50.875Z,17.15
2023-04-29T00:51:03.286Z,16.20
2023-04-29T00:51:16.011Z,10.00
2023-04-29T00:51:27.614Z,10.65
2023-04-29T00:51:41.351Z,12.68
2023-04-29T00:51:53.987Z,14.05
2023-04-29T00:52:05.778Z,12.57
2023-04-29T00:52:17.699Z,8.98
2023-04-29T00:52:30.402Z,10.07
2023-04-29T00:52:42.525Z,9.98
2023-04-29T00:52:53.943Z,11.82
2023-04-29T00:53:05.937Z,13.15
2023-04-29T00:53:17.491Z,14.23
2023-04-29T00:53:29.227Z,16.73
2023-04-29T00:53:40.701Z,15.75
2023-04-29T00:53:52.528Z,11.48
2023-04-29T00:54:07.953Z,12.50
2023-04-29T00:54:19.594Z,12.20
2023-04-29T00:54:31.037Z,10.55
2023-04-29T00:54:43.649Z,9.63
2023-04-29T00:54:55.266Z,9.30
2023-04-29T00:55:07.637Z,9.90
2023-04-29T00:55:19.496Z,9.32
2023-04-29T00:55:32.759Z,9.75
2023-04-29T00:55:46.560Z,9.35
2023-04-29T00:55:57.943Z,10.02
2023-04-29T00:56:10.086Z,11.23
2023-04-29T00:56:22.816Z,10.77
2023-04-29T00:56:35.778Z,9.60
2023-04-29T00:56:47.558Z,8.23
2023-04-29T00:57:01.695Z,10.18
2023-04-29T00:57:14.156Z,12.02
2023-04-29T00:57:26.654Z,11.73
2023-04-29T00:57:38.386Z,10.90
2023-04-29T00:57:50.641Z,11.15
2023-04-29T00:58:02.272Z,9.85
2023-04-29T00:58:13.766Z,10.35
2023-04-29T00:58:25.269Z,11.60
2023-04-29T00:58:36.770Z,10.82
2023-04-29T00:58:48.410Z,11.48
2023-04-29T00:58:59.837Z,9.93
2023-04-29T00:59:11.386Z,10.93
2023-04-29T00:59:23.493Z,10.98
2023-04-29T00:59:35.887Z,10.88
2023-04-29T00:59:47.338Z,12.25
2023-04-29T00:59:59.011Z,11.80
2023-04-29T01:00:10.815Z,12.00
2023-04-29T01:00:22.376Z,11.25
2023-04-29T01:00:34.120Z,11.15
2023-04-29T01:00:46.141Z,12.27
2023-04-29T01:00:57.762Z,12.48
2023-04-29T01:01:09.239Z,12.13
2023-04-29T01:01:20.851Z,11.48
2023-04-29T01:01:32.592Z,9.82
2023-04-29T01:01:44.040Z,10.63
2023-04-29T01:01:56.227Z,10.55
2023-04-29T01:02:07.903Z,11.32
2023-04-29T01:02:19.535Z,13.48
2023-04-29T01:02:31.545Z,13.52
2023-04-29T01:02:43.903Z,12.57
2023-04-29T01:02:55.917Z,12.35
2023-04-29T01:03:10.087Z,13.18
2023-04-29T01:03:22.451Z,14.95
2023-04-29T01:03:34.174Z,14.82
2023-04-29T01:03:46.056Z,13.10
2023-04-29T01:03:57.909Z,11.18
2023-04-29T01:04:11.022Z,12.23
2023-04-29T01:04:22.674Z,13.70
2023-04-29T01:04:34.217Z,17.02
2023-04-29T01:04:45.705Z,16.02
2023-04-29T01:04:57.498Z,16.05
2023-04-29T01:05:09.189Z,13.85
2023-04-29T01:05:20.614Z,11.43
2023-04-29T01:05:32.059Z,10.60
2023-04-29T01:05:48.916Z,10.23
2023-04-29T01:06:17.595Z,9.85
2023-04-29T01:06:37.948Z,12.65
2023-04-29T01:06:51.990Z,12.15
2023-04-29T01:07:37.525Z,10.82
2023-04-29T01:08:02.099Z,12.55
2023-04-29T01:08:44.182Z,12.70
2023-04-29T01:09:17.841Z,10.25
2023-04-29T01:10:00.882Z,11.50
2023-04-29T01:10:19.996Z,13.23
2023-04-29T01:11:11.444Z,13.15
2023-04-29T01:11:28.260Z,12.52
2023-04-29T01:11:53.467Z,11.18
2023-04-29T01:12:13.111Z,11.55
2023-04-29T01:12:40.230Z,9.75
2023-04-29T01:13:03.392Z,10.50
2023-04-29T01:13:29.299Z,10.70
2023-04-29T01:13:46.264Z,12.88
2023-04-29T01:14:02.809Z,9.90
2023-04-29T01:14:14.314Z,10.38
2023-04-29T01:14:25.841Z,10.57
2023-04-29T01:14:39.283Z,11.00
2023-04-29T01:15:03.645Z,10.25
2023-04-29T01:15:30.436Z,12.90
2023-04-29T01:16:00.486Z,12.55
2023-04-29T01:16:21.608Z,10.85
2023-04-29T01:16:47.889Z,9.60
2023-04-29T01:17:19.564Z,11.07
2023-04-29T01:17:37.484Z,11.52
2023-04-29T01:17:56.352Z,12.38
2023-04-29T01:18:14.493Z,11.80
2023-04-29T01:18:28.370Z,11.10
2023-04-29T01:18:43.115Z,11.60
2023-04-29T01:19:17.031Z,10.13
2023-04-29T01:19:55.374Z,11.63
2023-04-29T01:20:08.781Z,13.30
2023-04-29T01:20:22.098Z,13.82
2023-04-29T01:20:34.442Z,12.40
2023-04-29T01:20:46.697Z,13.43
2023-04-29T01:20:59.453Z,12.48
2023-04-29T01:21:11.590Z,11.65
2023-04-29T01:21:24.895Z,11.10
2023-04-29T01:21:48.660Z,12.75
2023-04-29T01:22:00.071Z,12.20
2023-04-29T01:22:11.663Z,12.00
2023-04-29T01:22:23.261Z,12.73
2023-04-29T01:22:34.715Z,14.07
2023-04-29T01:22:46.067Z,12.45
2023-04-29T01:22:57.476Z,11.88
2023-04-29T01:23:08.858Z,13.02
2023-04-29T01:23:20.259Z,14.95
2023-04-29T01:23:31.675Z,15.30
2023-04-29T01:23:42.983Z,13.02
2023-04-29T01:23:54.443Z,10.27
2023-04-29T01:24:05.963Z,11.35
2023-04-29T01:24:17.497Z,11.63
2023-04-29T01:24:28.931Z,11.05
2023-04-29T01:24:41.328Z,11.10
2023-04-29T01:24:52.686Z,11.70
2023-04-29T01:25:04.338Z,10.32
2023-04-29T01:25:15.722Z,10.73
2023-04-29T01:25:27.376Z,10.50
2023-04-29T01:25:38.932Z,12.95
2023-04-29T01:25:50.449Z,13.02
2023-04-29T01:26:02.159Z,12.77
2023-04-29T01:26:13.555Z,10.73
2023-04-29T01:26:27.220Z,9.27
2023-04-29T01:26:38.914Z,8.52
2023-04-29T01:26:59.168Z,9.13
2023-04-29T01:27:30.047Z,10.80
2023-04-29T01:28:01.189Z,12.32
2023-04-29T01:28:18.112Z,10.95
2023-04-29T01:29:06.922Z,10.85
2023-04-29T01:29:22.736Z,8.20
2023-04-29T01:29:42.905Z,9.60
2023-04-29T01:30:07.994Z,10.38
2023-04-29T01:30:41.754Z,11.57
2023-04-29T01:30:59.655Z,12.07
2023-04-29T01:31:18.175Z,12.70
2023-04-29T01:31:39.244Z,13.82
2023-04-29T01:32:03.719Z,13.43
2023-04-29T01:32:34.646Z,11.40
2023-04-29T01:33:17.312Z,11.90
2023-04-29T01:33:43.985Z,13.18
2023-04-29T01:33:55.319Z,11.70
2023-04-29T01:34:18.407Z,10.40
2023-04-29T01:34:54.380Z,11.82
2023-04-29T01:35:11.917Z,11.68
2023-04-29T01:35:38.333Z,11.35
2023-04-29T01:36:13.878Z,11.30
2023-04-29T01:36:57.685Z,12.43
2023-04-29T01:37:19.258Z,10.23
2023-04-29T01:38:23.473Z,11.13
2023-04-29T01:39:03.261Z,12.00
2023-04-29T01:39:20.558Z,12.50
2023-04-29T01:39:47.245Z,14.15
2023-04-29T01:40:15.812Z,12.70
2023-04-29T01:40:53.893Z,10.23
2023-04-29T01:41:14.501Z,12.25
2023-04-29T01:41:44.284Z,11.50
2023-04-29T01:42:34.599Z,12.02
2023-04-29T01:42:55.992Z,11.65
2023-04-29T01:43:12.593Z,12.45
2023-04-29T01:43:28.445Z,13.65
2023-04-29T01:43:40.871Z,12.27
2023-04-29T01:43:52.578Z,11.27
2023-04-29T01:44:06.388Z,11.57
2023-04-29T01:44:23.629Z,11.13
2023-04-29T01:44:36.002Z,10.82
2023-04-29T01:44:49.284Z,11.60
2023-04-29T01:45:03.511Z,14.88
2023-04-29T01:45:16.438Z,13.07
2023-04-29T01:45:28.748Z,11.02
2023-04-29T01:45:40.344Z,10.60
2023-04-29T01:45:53.680Z,10.95
2023-04-29T01:46:08.942Z,12.13
2023-04-29T01:46:20.379Z,12.25
2023-04-29T01:46:32.225Z,12.35
2023-04-29T01:46:49.125Z,15.60
2023-04-29T01:47:02.170Z,14.57
2023-04-29T01:47:14.274Z,14.43
2023-04-29T01:47:27.034Z,13.95
2023-04-29T01:47:39.358Z,11.50
2023-04-29T01:47:54.719Z,11.55
2023-04-29T01:48:06.453Z,13.00
2023-04-29T01:48:18.465Z,13.43
2023-04-29T01:48:30.693Z,13.50
2023-04-29T01:48:42.113Z,13.90
2023-04-29T01:48:54.215Z,13.00
2023-04-29T01:49:07.533Z,11.43
2023-04-29T01:49:24.898Z,11.82
2023-04-29T01:49:36.571Z,12.13
2023-04-29T01:49:49.657Z,11.25
2023-04-29T01:50:01.028Z,11.27
2023-04-29T01:50:12.484Z,11.45
2023-04-29T01:50:24.128Z,12.65
2023-04-29T01:50:35.514Z,12.88
2023-04-29T01:50:46.823Z,11.68
2023-04-29T01:50:58.213Z,10.48
2023-04-29T01:51:10.876Z,12.25
2023-04-29T01:51:22.319Z,12.75
2023-04-29T01:51:33.814Z,11.93
2023-04-29T01:51:45.175Z,11.57
2023-04-29T01:51:56.497Z,12.77
2023-04-29T01:52:07.907Z,13.30
2023-04-29T01:52:19.287Z,13.80
2023-04-29T01:52:30.646Z,13.02
2023-04-29T01:52:42.026Z,12.65
2023-04-29T01:52:53.424Z,12.27
2023-04-29T01:53:05.854Z,11.80
2023-04-29T01:53:17.272Z,12.00
2023-04-29T01:53:28.631Z,14.00
2023-04-29T01:53:40.037Z,14.00
2023-04-29T01:53:51.506Z,13.45
2023-04-29T01:54:03.148Z,14.13
2023-04-29T01:54:14.618Z,15.68
2023-04-29T01:54:26.065Z,14.13
2023-04-29T01:54:37.556Z,12.80
2023-04-29T01:54:48.966Z,13.77
2023-04-29T01:55:00.396Z,13.60
2023-04-29T01:55:11.844Z,12.57
2023-04-29T01:55:23.420Z,11.73
2023-04-29T01:55:34.862Z,11.32
2023-04-29T01:55:46.314Z,11.80
2023-04-29T01:55:57.681Z,11.13
2023-04-29T01:56:09.122Z,10.32
2023-04-29T01:56:20.530Z,11.07
2023-04-29T01:56:32.943Z,11.90
2023-04-29T01:56:44.462Z,11.77
2023-04-29T01:56:55.994Z,12.60
2023-04-29T01:57:07.301Z,13.07
2023-04-29T01:57:18.663Z,15.52
2023-04-29T01:57:30.001Z,16.52
2023-04-29T01:57:41.487Z,15.63
2023-04-29T01:57:52.864Z,12.88
2023-04-29T01:58:04.257Z,12.38
2023-04-29T01:58:15.716Z,11.25
2023-04-29T01:58:27.136Z,9.70
2023-04-29T01:58:38.567Z,10.38
2023-04-29T01:58:49.966Z,11.80
2023-04-29T01:59:01.403Z,12.63
2023-04-29T01:59:12.820Z,11.13
2023-04-29T01:59:24.466Z,10.10
2023-04-29T01:59:36.642Z,9.63
2023-04-29T01:59:48.072Z,11.50
2023-04-29T01:59:59.822Z,12.15
2023-04-29T02:00:11.756Z,12.10
2023-04-29T02:00:23.202Z,11.88
2023-04-29T02:00:34.691Z,12.50
2023-04-29T02:00:46.122Z,11.23
2023-04-29T02:00:57.693Z,11.20
2023-04-29T02:01:09.237Z,10.10
2023-04-29T02:01:20.788Z,10.98
2023-04-29T02:01:32.287Z,11.13
2023-04-29T02:01:43.689Z,9.93
2023-04-29T02:01:55.105Z,10.45
2023-04-29T02:02:06.741Z,10.50
2023-04-29T02:02:18.245Z,11.07
2023-04-29T02:02:29.775Z,12.02
2023-04-29T02:02:41.441Z,13.57
2023-04-29T02:02:55.337Z,13.93
2023-04-29T02:03:06.933Z,13.57
2023-04-29T02:03:18.494Z,13.15
2023-04-29T02:03:30.031Z,12.65
2023-04-29T02:03:41.712Z,11.32
2023-04-29T02:03:53.464Z,12.55
2023-04-29T02:04:05.511Z,13.82
2023-04-29T02:04:17.048Z,13.40
2023-04-29T02:04:28.557Z,11.95
2023-04-29T02:04:40.132Z,11.55
2023-04-29T02:04:51.685Z,12.95
2023-04-29T02:05:03.299Z,13.23
2023-04-29T02:05:14.835Z,14.80
2023-04-29T02:05:26.174Z,13.13
2023-04-29T02:05:37.597Z,10.95
2023-04-29T02:05:49.002Z,13.27
2023-04-29T02:06:00.305Z,13.55
2023-04-29T02:06:12.899Z,11.90
2023-04-29T02:06:24.379Z,10.05
2023-04-29T02:06:35.838Z,10.13
2023-04-29T02:06:47.271Z,10.05
2023-04-29T02:06:58.770Z,10.30
2023-04-29T02:07:10.205Z,10.27
2023-04-29T02:07:21.775Z,19.50
2023-04-29T02:07:33.146Z,18.17
2023-04-29T02:07:44.522Z,16.15
2023-04-29T02:07:55.857Z,10.73
2023-04-29T02:08:08.287Z,13.73
2023-04-29T02:08:19.679Z,14.10
2023-04-29T02:08:31.106Z,14.57
2023-04-29T02:08:42.696Z,12.70
2023-04-29T02:08:54.077Z,13.63
2023-04-29T02:09:06.505Z,14.43
2023-04-29T02:09:17.879Z,13.75
2023-04-29T02:09:29.430Z,10.68
2023-04-29T02:09:40.767Z,10.55
2023-04-29T02:09:52.369Z,10.38
2023-04-29T02:10:04.275Z,11.00
2023-04-29T02:10:15.846Z,10.68
2023-04-29T02:10:27.880Z,10.75
2023-04-29T02:10:39.590Z,11.15
2023-04-29T02:10:54.843Z,10.43
2023-04-29T02:11:06.340Z,11.23
2023-04-29T02:11:17.813Z,11.07
2023-04-29T02:11:29.234Z,11.02
2023-04-29T02:11:40.620Z,9.07
2023-04-29T02:11:51.996Z,10.00
2023-04-29T02:12:04.365Z,13.65
2023-04-29T02:12:15.760Z,17.20
2023-04-29T02:12:27.360Z,19.38
2023-04-29T02:12:39.156Z,16.85
2023-04-29T02:12:50.626Z,14.57
2023-04-29T02:13:02.042Z,14.38
2023-04-29T02:13:14.669Z,13.75
2023-04-29T02:13:26.627Z,14.77
2023-04-29T02:13:38.208Z,14.88
2023-04-29T02:13:51.841Z,14.85
2023-04-29T02:14:03.231Z,13.93
2023-04-29T02:14:14.631Z,15.18
2023-04-29T02:14:26.218Z,14.45
2023-04-29T02:14:38.032Z,12.90
2023-04-29T02:14:52.498Z,12.80
2023-04-29T02:15:04.186Z,16.30
2023-04-29T02:15:15.690Z,16.20
2023-04-29T02:15:27.706Z,13.75
2023-04-29T02:15:39.156Z,12.52
2023-04-29T02:15:50.856Z,10.87
2023-04-29T02:16:12.766Z,9.43
2023-04-29T02:16:24.314Z,10.25
2023-04-29T02:16:36.764Z,11.35
2023-04-29T02:16:48.230Z,11.82
2023-04-29T02:17:00.158Z,11.40
2023-04-29T02:17:11.555Z,10.05
2023-04-29T02:17:22.995Z,10.50
2023-04-29T02:17:34.595Z,11.45
2023-04-29T02:17:46.624Z,14.77
2023-04-29T02:17:58.131Z,15.18
2023-04-29T02:18:29.490Z,13.85
2023-04-29T02:18:40.885Z,13.07
2023-04-29T02:18:52.291Z,9.73
2023-04-29T02:19:03.849Z,10.00
2023-04-29T02:19:15.318Z,10.48
2023-04-29T02:19:26.785Z,11.90
2023-04-29T02:19:38.336Z,11.95
2023-04-29T02:19:49.694Z,12.57
2023-04-29T02:20:01.085Z,10.85
2023-04-29T02:20:13.836Z,11.55
2023-04-29T02:20:25.309Z,11.55
2023-04-29T02:20:36.704Z,11.10
2023-04-29T02:20:48.330Z,9.43
2023-04-29T02:21:03.003Z,10.38
2023-04-29T02:21:14.465Z,11.18
2023-04-29T02:21:25.997Z,12.13
2023-04-29T02:21:37.397Z,12.23
2023-04-29T02:21:49.183Z,12.93
2023-04-29T02:22:00.896Z,12.68
2023-04-29T02:22:12.221Z,12.20
2023-04-29T02:22:23.674Z,10.93
2023-04-29T02:22:35.143Z,12.55
2023-04-29T02:22:46.898Z,12.30
2023-04-29T02:22:58.257Z,11.48
2023-04-29T02:23:09.969Z,14.55
2023-04-29T02:23:21.436Z,17.05
2023-04-29T02:23:33.272Z,16.60
2023-04-29T02:23:44.716Z,13.25
2023-04-29T02:23:56.225Z,15.05
2023-04-29T02:24:07.653Z,14.65
2023-04-29T02:24:19.025Z,13.90
2023-04-29T02:24:30.428Z,13.88
2023-04-29T02:24:41.744Z,15.50
2023-04-29T02:24:53.208Z,13.40
2023-04-29T02:25:05.027Z,10.35
2023-04-29T02:25:16.549Z,10.68
2023-04-29T02:25:28.035Z,12.60
2023-04-29T02:25:39.494Z,12.55
2023-04-29T02:25:50.945Z,11.65
2023-04-29T02:26:02.374Z,12.38
2023-04-29T02:26:13.763Z,12.27
2023-04-29T02:26:25.255Z,12.88
2023-04-29T02:26:36.601Z,15.23
2023-04-29T02:26:48.014Z,14.93
2023-04-29T02:26:59.390Z,12.77
2023-04-29T02:27:10.846Z,12.55
2023-04-29T02:27:22.293Z,12.75
2023-04-29T02:27:33.757Z,13.57
2023-04-29T02:27:45.185Z,12.40
2023-04-29T02:27:57.775Z,10.13
2023-04-29T02:28:09.099Z,10.10
2023-04-29T02:28:20.570Z,10.45
2023-04-29T02:28:32.566Z,12.48
2023-04-29T02:28:43.918Z,16.75
2023-04-29T02:28:55.526Z,16.88
2023-04-29T02:29:06.918Z,12.90
2023-04-29T02:29:18.887Z,11.82
2023-04-29T02:29:30.315Z,12.30
2023-04-29T02:29:41.849Z,12.77
2023-04-29T02:29:53.421Z,12.07
2023-04-29T02:30:05.618Z,12.93
2023-04-29T02:30:17.023Z,12.43
2023-04-29T02:30:28.916Z,12.27
2023-04-29T02:30:40.312Z,11.52
2023-04-29T02:30:51.818Z,12.35
2023-04-29T02:31:03.287Z,13.63
2023-04-29T02:31:14.693Z,13.82
2023-04-29T02:31:26.211Z,11.60
2023-04-29T02:31:37.761Z,14.63
2023-04-29T02:31:50.421Z,15.50
2023-04-29T02:32:01.974Z,14.73
2023-04-29T02:32:13.413Z,15.18
2023-04-29T02:32:24.868Z,12.15
2023-04-29T02:32:36.287Z,11.68
2023-04-29T02:32:47.803Z,11.45
2023-04-29T02:32:59.240Z,12.05
2023-04-29T02:33:10.813Z,13.02
2023-04-29T02:33:22.333Z,12.45
2023-04-29T02:33:33.697Z,12.00
2023-04-29T02:33:45.090Z,11.05
2023-04-29T02:33:56.501Z,10.82
2023-04-29T02:34:08.020Z,11.32
2023-04-29T02:34:19.400Z,11.23
2023-04-29T02:34:30.796Z,11.35
2023-04-29T02:34:42.218Z,11.57
2023-04-29T02:34:53.658Z,11.43
2023-04-29T02:35:05.706Z,11.85
2023-04-29T02:35:17.091Z,12.38
2023-04-29T02:35:28.432Z,14.93
2023-04-29T02:35:39.843Z,14.25
2023-04-29T02:35:51.340Z,11.25
2023-04-29T02:36:02.891Z,10.48
2023-04-29T02:36:14.289Z,10.60
2023-04-29T02:36:26.101Z,11.32
2023-04-29T02:36:37.476Z,13.13
2023-04-29T02:36:48.932Z,12.43
2023-04-29T02:37:00.341Z,14.27
2023-04-29T02:37:11.788Z,13.60
2023-04-29T02:37:23.668Z,11.57
2023-04-29T02:37:35.317Z,11.80
2023-04-29T02:37:46.689Z,12.15
2023-04-29T02:37:58.050Z,10.65
2023-04-29T02:38:09.615Z,12.82
2023-04-29T02:38:21.073Z,12.98
2023-04-29T02:38:32.492Z,11.70
2023-04-29T02:38:44.229Z,12.45
2023-04-29T02:38:55.666Z,13.13
2023-04-29T02:39:07.048Z,13.32
2023-04-29T02:39:18.444Z,11.60
2023-04-29T02:39:29.873Z,13.65
2023-04-29T02:39:41.497Z,13.73
2023-04-29T02:39:53.340Z,12.88
2023-04-29T02:40:05.818Z,12.52
2023-04-29T02:40:18.115Z,14.48
2023-04-29T02:40:29.542Z,13.00
2023-04-29T02:40:42.299Z,12.77
2023-04-29T02:40:53.762Z,16.70
2023-04-29T02:41:05.252Z,18.63
2023-04-29T02:41:17.902Z,16.13
2023-04-29T02:41:29.325Z,15.65
2023-04-29T02:41:40.706Z,15.18
2023-04-29T02:41:54.503Z,13.13
2023-04-29T02:42:05.803Z,12.23
2023-04-29T02:42:17.220Z,11.70
2023-04-29T02:42:29.034Z,11.88
2023-04-29T02:42:40.423Z,13.57
2023-04-29T02:42:51.734Z,15.90
2023-04-29T02:43:03.158Z,15.07
2023-04-29T02:43:14.669Z,13.60
2023-04-29T02:43:25.980Z,14.27
2023-04-29T02:43:37.324Z,11.50
2023-04-29T02:43:48.694Z,9.60
2023-04-29T02:44:00.066Z,11.85
2023-04-29T02:44:11.743Z,12.68
2023-04-29T02:44:23.167Z,12.18
2023-04-29T02:44:34.510Z,9.60
2023-04-29T02:44:45.889Z,10.77
2023-04-29T02:44:57.243Z,12.60
2023-04-29T02:45:11.398Z,13.02
2023-04-29T02:45:22.763Z,12.93
2023-04-29T02:45:34.177Z,12.15
2023-04-29T02:45:45.640Z,12.43
2023-04-29T02:45:57.315Z,11.82
2023-04-29T02:46:08.809Z,12.88
2023-04-29T02:46:20.381Z,13.77
2023-04-29T02:46:31.740Z,13.25
2023-04-29T02:46:43.146Z,13.68
2023-04-29T02:46:54.519Z,13.85
2023-04-29T02:47:05.922Z,12.07
2023-04-29T02:47:17.369Z,10.43
2023-04-29T02:47:28.725Z,11.55
2023-04-29T02:47:40.224Z,11.82
2023-04-29T02:47:51.624Z,11.90
2023-04-29T02:48:03.124Z,10.77
2023-04-29T02:48:14.591Z,11.05
2023-04-29T02:48:25.997Z,11.60
2023-04-29T02:48:37.378Z,12.95
2023-04-29T02:48:48.756Z,13.68
2023-04-29T02:49:00.137Z,11.35
2023-04-29T02:49:13.027Z,11.80
2023-04-29T02:49:24.456Z,11.85
2023-04-29T02:49:35.829Z,11.65
2023-04-29T02:49:47.211Z,11.02